sensor_id;sensor_type;location;lat;lon;timestamp;pressure;altitude;pressure_sealevel;temperature;humidity
38466;BME280;24244;51.950;5.902;2023-04-21T00:02:25;101491.88;;;9.85;67.23
38466;BME280;24244;51.950;5.902;2023-04-21T00:04:53;101490.22;;;9.84;67.41
38466;BME280;24244;51.950;5.902;2023-04-21T00:07:21;101482.41;;;9.82;67.53
38466;BME280;24244;51.950;5.902;2023-04-21T00:09:48;101484.06;;;9.83;67.39
38466;BME280;24244;51.950;5.902;2023-04-21T00:12:15;101489.53;;;9.82;68.00
38466;BME280;24244;51.950;5.902;2023-04-21T00:14:42;101473.63;;;9.82;67.65
38466;BME280;24244;51.950;5.902;2023-04-21T00:17:08;101469.81;;;9.85;67.99
38466;BME280;24244;51.950;5.902;2023-04-21T00:19:36;101469.66;;;9.86;67.77
38466;BME280;24244;51.950;5.902;2023-04-21T00:22:03;101469.47;;;9.88;67.80
38466;BME280;24244;51.950;5.902;2023-04-21T00:24:33;101465.19;;;9.87;67.87
38466;BME280;24244;51.950;5.902;2023-04-21T00:27:00;101461.84;;;9.85;68.48
38466;BME280;24244;51.950;5.902;2023-04-21T00:29:29;101461.00;;;9.84;68.00
38466;BME280;24244;51.950;5.902;2023-04-21T00:31:55;101449.56;;;9.83;68.50
38466;BME280;24244;51.950;5.902;2023-04-21T00:34:22;101450.53;;;9.82;68.36
38466;BME280;24244;51.950;5.902;2023-04-21T00:36:50;101440.91;;;9.81;68.45
38466;BME280;24244;51.950;5.902;2023-04-21T00:39:17;101443.75;;;9.80;68.61
38466;BME280;24244;51.950;5.902;2023-04-21T00:41:44;101443.91;;;9.78;68.76
38466;BME280;24244;51.950;5.902;2023-04-21T00:44:12;101443.09;;;9.78;68.77
38466;BME280;24244;51.950;5.902;2023-04-21T00:46:39;101438.44;;;9.80;69.08
38466;BME280;24244;51.950;5.902;2023-04-21T00:49:06;101429.97;;;9.76;68.72
38466;BME280;24244;51.950;5.902;2023-04-21T00:51:34;101436.28;;;9.75;69.16
38466;BME280;24244;51.950;5.902;2023-04-21T00:54:04;101434.44;;;9.76;68.86
38466;BME280;24244;51.950;5.902;2023-04-21T00:56:32;101429.13;;;9.76;69.18
38466;BME280;24244;51.950;5.902;2023-04-21T00:59:00;101428.97;;;9.77;69.23
38466;BME280;24244;51.950;5.902;2023-04-21T01:01:28;101421.84;;;9.78;69.23
38466;BME280;24244;51.950;5.902;2023-04-21T01:03:56;101414.72;;;9.78;69.41
38466;BME280;24244;51.950;5.902;2023-04-21T01:06:23;101415.53;;;9.79;69.59
38466;BME280;24244;51.950;5.902;2023-04-21T01:08:51;101412.91;;;9.79;69.71
38466;BME280;24244;51.950;5.902;2023-04-21T01:11:19;101408.56;;;9.78;69.96
38466;BME280;24244;51.950;5.902;2023-04-21T01:13:46;101411.72;;;9.81;69.69
38466;BME280;24244;51.950;5.902;2023-04-21T01:16:15;101401.94;;;9.82;69.89
38466;BME280;24244;51.950;5.902;2023-04-21T01:18:42;101400.78;;;9.85;69.79
38466;BME280;24244;51.950;5.902;2023-04-21T01:21:09;101405.09;;;9.86;69.70
38466;BME280;24244;51.950;5.902;2023-04-21T01:23:38;101403.44;;;9.85;70.07
38466;BME280;24244;51.950;5.902;2023-04-21T01:26:05;101390.81;;;9.87;70.13
38466;BME280;24244;51.950;5.902;2023-04-21T01:28:31;101393.13;;;9.81;70.52
38466;BME280;24244;51.950;5.902;2023-04-21T01:30:58;101396.78;;;9.80;70.36
38466;BME280;24244;51.950;5.902;2023-04-21T01:33:25;101405.41;;;9.82;70.39
38466;BME280;24244;51.950;5.902;2023-04-21T01:35:52;101396.28;;;9.85;70.55
38466;BME280;24244;51.950;5.902;2023-04-21T01:38:19;101398.78;;;9.87;70.32
38466;BME280;24244;51.950;5.902;2023-04-21T01:40:50;101404.75;;;9.89;70.61
38466;BME280;24244;51.950;5.902;2023-04-21T01:43:19;101396.78;;;9.89;70.60
38466;BME280;24244;51.950;5.902;2023-04-21T01:45:46;101404.59;;;9.90;70.91
38466;BME280;24244;51.950;5.902;2023-04-21T01:48:13;101403.59;;;9.91;70.88
38466;BME280;24244;51.950;5.902;2023-04-21T01:50:40;101405.25;;;9.92;70.80
38466;BME280;24244;51.950;5.902;2023-04-21T01:53:07;101406.91;;;9.93;70.82
38466;BME280;24244;51.950;5.902;2023-04-21T01:55:34;101406.25;;;9.91;71.05
38466;BME280;24244;51.950;5.902;2023-04-21T01:58:02;101409.91;;;9.90;71.11
38466;BME280;24244;51.950;5.902;2023-04-21T02:00:29;101391.00;;;9.93;71.21
38466;BME280;24244;51.950;5.902;2023-04-21T02:02:56;101396.94;;;9.95;71.11
38466;BME280;24244;51.950;5.902;2023-04-21T02:05:23;101391.81;;;9.94;71.13
38466;BME280;24244;51.950;5.902;2023-04-21T02:07:49;101383.84;;;9.94;71.54
38466;BME280;24244;51.950;5.902;2023-04-21T02:10:16;101389.16;;;9.94;71.29
38466;BME280;24244;51.950;5.902;2023-04-21T02:12:43;101384.00;;;9.92;71.43
38466;BME280;24244;51.950;5.902;2023-04-21T02:15:11;101383.19;;;9.92;71.85
38466;BME280;24244;51.950;5.902;2023-04-21T02:17:38;101379.69;;;9.91;71.51
38466;BME280;24244;51.950;5.902;2023-04-21T02:20:06;101386.66;;;9.92;71.85
38466;BME280;24244;51.950;5.902;2023-04-21T02:22:33;101395.47;;;9.93;71.99
38466;BME280;24244;51.950;5.902;2023-04-21T02:25:00;101385.84;;;9.92;71.86
38466;BME280;24244;51.950;5.902;2023-04-21T02:27:28;101389.50;;;9.91;72.03
38466;BME280;24244;51.950;5.902;2023-04-21T02:29:56;101382.19;;;9.93;72.00
38466;BME280;24244;51.950;5.902;2023-04-21T02:32:24;101377.88;;;9.92;71.99
38466;BME280;24244;51.950;5.902;2023-04-21T02:34:52;101370.91;;;9.91;72.18
38466;BME280;24244;51.950;5.902;2023-04-21T02:37:19;101376.06;;;9.92;72.24
38466;BME280;24244;51.950;5.902;2023-04-21T02:39:46;101361.94;;;9.92;72.08
38466;BME280;24244;51.950;5.902;2023-04-21T02:42:13;101360.94;;;9.93;72.10
38466;BME280;24244;51.950;5.902;2023-04-21T02:44:40;101369.75;;;9.93;72.10
38466;BME280;24244;51.950;5.902;2023-04-21T02:47:08;101363.75;;;9.91;72.02
38466;BME280;24244;51.950;5.902;2023-04-21T02:49:40;101362.94;;;9.91;71.96
38466;BME280;24244;51.950;5.902;2023-04-21T02:52:07;101378.19;;;9.89;72.29
38466;BME280;24244;51.950;5.902;2023-04-21T02:54:34;101387.34;;;9.86;72.76
38466;BME280;24244;51.950;5.902;2023-04-21T02:57:01;101381.03;;;9.87;72.14
38466;BME280;24244;51.950;5.902;2023-04-21T02:59:28;101373.06;;;9.87;72.49
38466;BME280;24244;51.950;5.902;2023-04-21T03:01:55;101371.22;;;9.88;72.57
38466;BME280;24244;51.950;5.902;2023-04-21T03:04:22;101363.59;;;9.85;72.66
38466;BME280;24244;51.950;5.902;2023-04-21T03:06:52;101362.09;;;9.82;72.70
38466;BME280;24244;51.950;5.902;2023-04-21T03:09:19;101360.28;;;9.82;72.63
38466;BME280;24244;51.950;5.902;2023-04-21T03:11:47;101362.09;;;9.82;72.60
38466;BME280;24244;51.950;5.902;2023-04-21T03:14:13;101372.88;;;9.80;72.83
38466;BME280;24244;51.950;5.902;2023-04-21T03:16:40;101348.81;;;9.82;72.69
38466;BME280;24244;51.950;5.902;2023-04-21T03:19:07;101352.16;;;9.84;73.07
38466;BME280;24244;51.950;5.902;2023-04-21T03:21:35;101356.31;;;9.87;72.76
38466;BME280;24244;51.950;5.902;2023-04-21T03:24:04;101360.78;;;9.86;72.73
38466;BME280;24244;51.950;5.902;2023-04-21T03:26:31;101344.03;;;9.86;72.91
38466;BME280;24244;51.950;5.902;2023-04-21T03:28:58;101352.16;;;9.84;73.00
38466;BME280;24244;51.950;5.902;2023-04-21T03:31:25;101349.66;;;9.82;73.20
38466;BME280;24244;51.950;5.902;2023-04-21T03:33:53;101343.50;;;9.82;73.14
38466;BME280;24244;51.950;5.902;2023-04-21T03:36:20;101348.00;;;9.81;73.18
38466;BME280;24244;51.950;5.902;2023-04-21T03:38:46;101333.88;;;9.81;73.15
38466;BME280;24244;51.950;5.902;2023-04-21T03:41:14;101347.00;;;9.82;73.18
38466;BME280;24244;51.950;5.902;2023-04-21T03:43:41;101346.16;;;9.82;73.34
38466;BME280;24244;51.950;5.902;2023-04-21T03:46:16;101339.03;;;9.82;73.66
38466;BME280;24244;51.950;5.902;2023-04-21T03:48:44;101345.19;;;9.83;73.28
38466;BME280;24244;51.950;5.902;2023-04-21T03:51:10;101342.38;;;9.85;73.63
38466;BME280;24244;51.950;5.902;2023-04-21T03:53:40;101345.19;;;9.83;73.34
38466;BME280;24244;51.950;5.902;2023-04-21T03:56:07;101354.66;;;9.86;73.47
38466;BME280;24244;51.950;5.902;2023-04-21T03:58:36;101345.84;;;9.85;73.54
38466;BME280;24244;51.950;5.902;2023-04-21T04:01:04;101343.03;;;9.87;73.62
38466;BME280;24244;51.950;5.902;2023-04-21T04:03:32;101346.53;;;9.87;73.44
38466;BME280;24244;51.950;5.902;2023-04-21T04:05:59;101334.03;;;9.88;73.81
38466;BME280;24244;51.950;5.902;2023-04-21T04:08:26;101325.91;;;9.89;73.78
38466;BME280;24244;51.950;5.902;2023-04-21T04:10:52;101333.88;;;9.89;73.28
38466;BME280;24244;51.950;5.902;2023-04-21T04:13:19;101332.22;;;9.88;73.51
38466;BME280;24244;51.950;5.902;2023-04-21T04:15:49;101336.69;;;9.88;73.57
38466;BME280;24244;51.950;5.902;2023-04-21T04:18:16;101337.72;;;9.87;73.72
38466;BME280;24244;51.950;5.902;2023-04-21T04:20:42;101333.41;;;9.86;73.91
38466;BME280;24244;51.950;5.902;2023-04-21T04:23:09;101329.91;;;9.85;74.09
38466;BME280;24244;51.950;5.902;2023-04-21T04:25:36;101338.56;;;9.87;73.92
38466;BME280;24244;51.950;5.902;2023-04-21T04:28:04;101328.94;;;9.86;73.97
38466;BME280;24244;51.950;5.902;2023-04-21T04:30:32;101328.09;;;9.86;74.17
38466;BME280;24244;51.950;5.902;2023-04-21T04:33:01;101324.44;;;9.87;73.99
38466;BME280;24244;51.950;5.902;2023-04-21T04:35:27;101323.63;;;9.86;73.94
38466;BME280;24244;51.950;5.902;2023-04-21T04:37:54;101322.63;;;9.87;74.31
38466;BME280;24244;51.950;5.902;2023-04-21T04:40:22;101328.25;;;9.84;74.49
38466;BME280;24244;51.950;5.902;2023-04-21T04:42:49;101321.94;;;9.85;74.38
38466;BME280;24244;51.950;5.902;2023-04-21T04:45:17;101322.78;;;9.86;74.60
38466;BME280;24244;51.950;5.902;2023-04-21T04:47:48;101329.91;;;9.85;74.67
38466;BME280;24244;51.950;5.902;2023-04-21T04:50:17;101321.78;;;9.87;74.45
38466;BME280;24244;51.950;5.902;2023-04-21T04:52:43;101322.78;;;9.86;74.52
38466;BME280;24244;51.950;5.902;2023-04-21T04:55:12;101327.25;;;9.85;74.62
38466;BME280;24244;51.950;5.902;2023-04-21T04:57:39;101328.25;;;9.84;74.80
38466;BME280;24244;51.950;5.902;2023-04-21T05:00:07;101332.56;;;9.85;74.64
38466;BME280;24244;51.950;5.902;2023-04-21T05:02:36;101338.88;;;9.84;74.94
38466;BME280;24244;51.950;5.902;2023-04-21T05:05:04;101331.75;;;9.85;74.67
38466;BME280;24244;51.950;5.902;2023-04-21T05:07:34;101339.88;;;9.83;75.33
38466;BME280;24244;51.950;5.902;2023-04-21T05:10:00;101339.19;;;9.81;75.26
38466;BME280;24244;51.950;5.902;2023-04-21T05:12:29;101336.22;;;9.84;75.09
38466;BME280;24244;51.950;5.902;2023-04-21T05:14:57;101333.41;;;9.86;75.14
38466;BME280;24244;51.950;5.902;2023-04-21T05:17:24;101330.91;;;9.84;75.39
38466;BME280;24244;51.950;5.902;2023-04-21T05:19:51;101339.53;;;9.86;75.69
38466;BME280;24244;51.950;5.902;2023-04-21T05:22:18;101346.31;;;9.89;75.56
38466;BME280;24244;51.950;5.902;2023-04-21T05:24:46;101350.31;;;9.93;75.53
38466;BME280;24244;51.950;5.902;2023-04-21T05:27:13;101359.75;;;9.95;75.48
38466;BME280;24244;51.950;5.902;2023-04-21T05:29:40;101353.63;;;9.95;75.15
38466;BME280;24244;51.950;5.902;2023-04-21T05:32:07;101361.59;;;9.95;75.20
38466;BME280;24244;51.950;5.902;2023-04-21T05:34:34;101359.75;;;9.95;75.57
38466;BME280;24244;51.950;5.902;2023-04-21T05:37:01;101367.72;;;9.95;75.59
38466;BME280;24244;51.950;5.902;2023-04-21T05:39:28;101368.56;;;9.96;75.62
38466;BME280;24244;51.950;5.902;2023-04-21T05:41:56;101371.22;;;9.96;75.76
38466;BME280;24244;51.950;5.902;2023-04-21T05:44:23;101374.53;;;9.98;75.67
38466;BME280;24244;51.950;5.902;2023-04-21T05:46:51;101375.22;;;10.00;75.63
38466;BME280;24244;51.950;5.902;2023-04-21T05:49:18;101367.09;;;10.01;75.85
38466;BME280;24244;51.950;5.902;2023-04-21T05:51:44;101370.38;;;10.03;75.78
38466;BME280;24244;51.950;5.902;2023-04-21T05:54:11;101364.09;;;10.04;75.55
38466;BME280;24244;51.950;5.902;2023-04-21T05:56:38;101355.94;;;10.06;75.75
38466;BME280;24244;51.950;5.902;2023-04-21T05:59:06;101370.22;;;10.05;75.63
38466;BME280;24244;51.950;5.902;2023-04-21T06:01:33;101363.09;;;10.05;75.72
38466;BME280;24244;51.950;5.902;2023-04-21T06:04:00;101377.03;;;10.07;76.03
38466;BME280;24244;51.950;5.902;2023-04-21T06:06:27;101367.25;;;10.08;75.82
38466;BME280;24244;51.950;5.902;2023-04-21T06:08:54;101363.56;;;10.09;75.96
38466;BME280;24244;51.950;5.902;2023-04-21T06:11:20;101360.75;;;10.10;76.26
38466;BME280;24244;51.950;5.902;2023-04-21T06:13:47;101365.91;;;10.12;76.06
38466;BME280;24244;51.950;5.902;2023-04-21T06:16:15;101363.09;;;10.13;76.23
38466;BME280;24244;51.950;5.902;2023-04-21T06:18:42;101361.25;;;10.14;76.37
38466;BME280;24244;51.950;5.902;2023-04-21T06:21:09;101355.63;;;10.17;76.25
38466;BME280;24244;51.950;5.902;2023-04-21T06:23:36;101350.97;;;10.19;76.57
38466;BME280;24244;51.950;5.902;2023-04-21T06:26:04;101354.13;;;10.23;76.73
38466;BME280;24244;51.950;5.902;2023-04-21T06:28:33;101353.78;;;10.26;76.76
38466;BME280;24244;51.950;5.902;2023-04-21T06:31:01;101348.97;;;10.29;76.60
38466;BME280;24244;51.950;5.902;2023-04-21T06:33:29;101356.59;;;10.32;76.48
38466;BME280;24244;51.950;5.902;2023-04-21T06:35:56;101347.28;;;10.36;76.52
38466;BME280;24244;51.950;5.902;2023-04-21T06:38:23;101346.59;;;10.42;76.40
38466;BME280;24244;51.950;5.902;2023-04-21T06:40:51;101346.09;;;10.47;76.62
38466;BME280;24244;51.950;5.902;2023-04-21T06:43:18;101352.53;;;10.52;76.88
38466;BME280;24244;51.950;5.902;2023-04-21T06:45:45;101364.16;;;10.59;76.82
38466;BME280;24244;51.950;5.902;2023-04-21T06:48:12;101353.00;;;10.64;76.60
38466;BME280;24244;51.950;5.902;2023-04-21T06:50:40;101353.16;;;10.71;76.40
38466;BME280;24244;51.950;5.902;2023-04-21T06:53:09;101344.66;;;10.75;76.67
38466;BME280;24244;51.950;5.902;2023-04-21T06:55:37;101350.25;;;10.80;76.79
38466;BME280;24244;51.950;5.902;2023-04-21T06:58:03;101350.44;;;10.87;76.85
38466;BME280;24244;51.950;5.902;2023-04-21T07:00:30;101350.22;;;10.88;76.48
38466;BME280;24244;51.950;5.902;2023-04-21T07:02:57;101352.56;;;10.91;76.58
38466;BME280;24244;51.950;5.902;2023-04-21T07:05:24;101352.41;;;10.93;76.67
38466;BME280;24244;51.950;5.902;2023-04-21T07:07:52;101347.69;;;10.95;76.72
38466;BME280;24244;51.950;5.902;2023-04-21T07:10:22;101347.53;;;10.96;76.71
38466;BME280;24244;51.950;5.902;2023-04-21T07:12:49;101353.69;;;10.97;76.65
38466;BME280;24244;51.950;5.902;2023-04-21T07:15:16;101355.50;;;10.96;76.42
38466;BME280;24244;51.950;5.902;2023-04-21T07:17:43;101361.66;;;10.97;76.58
38466;BME280;24244;51.950;5.902;2023-04-21T07:20:10;101358.19;;;10.96;77.06
38466;BME280;24244;51.950;5.902;2023-04-21T07:22:37;101362.50;;;10.97;76.92
38466;BME280;24244;51.950;5.902;2023-04-21T07:25:06;101363.16;;;10.99;76.87
38466;BME280;24244;51.950;5.902;2023-04-21T07:27:33;101358.47;;;11.02;76.92
38466;BME280;24244;51.950;5.902;2023-04-21T07:30:00;101346.00;;;11.02;76.82
38466;BME280;24244;51.950;5.902;2023-04-21T07:32:26;101351.97;;;11.04;76.87
38466;BME280;24244;51.950;5.902;2023-04-21T07:34:53;101347.16;;;11.08;76.80
38466;BME280;24244;51.950;5.902;2023-04-21T07:37:20;101350.44;;;11.10;76.90
38466;BME280;24244;51.950;5.902;2023-04-21T07:39:49;101351.94;;;11.12;76.82
38466;BME280;24244;51.950;5.902;2023-04-21T07:42:17;101346.44;;;11.14;77.04
38466;BME280;24244;51.950;5.902;2023-04-21T07:44:43;101360.06;;;11.19;76.98
38466;BME280;24244;51.950;5.902;2023-04-21T07:47:10;101361.53;;;11.21;77.15
38466;BME280;24244;51.950;5.902;2023-04-21T07:49:37;101354.84;;;11.25;77.07
38466;BME280;24244;51.950;5.902;2023-04-21T07:52:04;101345.53;;;11.29;76.76
38466;BME280;24244;51.950;5.902;2023-04-21T07:54:30;101346.81;;;11.33;77.34
38466;BME280;24244;51.950;5.902;2023-04-21T07:56:57;101349.78;;;11.38;77.42
38466;BME280;24244;51.950;5.902;2023-04-21T07:59:26;101347.44;;;11.44;77.11
38466;BME280;24244;51.950;5.902;2023-04-21T08:01:52;101340.38;;;11.51;77.20
38466;BME280;24244;51.950;5.902;2023-04-21T08:04:19;101338.00;;;11.56;77.00
38466;BME280;24244;51.950;5.902;2023-04-21T08:06:46;101344.63;;;11.60;76.89
38466;BME280;24244;51.950;5.902;2023-04-21T08:09:13;101343.06;;;11.65;77.01
38466;BME280;24244;51.950;5.902;2023-04-21T08:11:40;101342.56;;;11.70;76.87
38466;BME280;24244;51.950;5.902;2023-04-21T08:14:07;101345.53;;;11.75;76.59
38466;BME280;24244;51.950;5.902;2023-04-21T08:16:37;101347.47;;;11.81;77.15
38466;BME280;24244;51.950;5.902;2023-04-21T08:19:04;101342.09;;;11.89;77.05
38466;BME280;24244;51.950;5.902;2023-04-21T08:21:32;101342.34;;;11.94;76.81
38466;BME280;24244;51.950;5.902;2023-04-21T08:23:59;101339.63;;;12.02;76.79
38466;BME280;24244;51.950;5.902;2023-04-21T08:26:26;101334.22;;;12.10;76.72
38466;BME280;24244;51.950;5.902;2023-04-21T08:28:53;101343.78;;;12.20;76.59
38466;BME280;24244;51.950;5.902;2023-04-21T08:31:19;101335.06;;;12.26;76.55
38466;BME280;24244;51.950;5.902;2023-04-21T08:33:48;101343.16;;;12.32;76.84
38466;BME280;24244;51.950;5.902;2023-04-21T08:36:27;101348.31;;;12.34;76.81
38466;BME280;24244;51.950;5.902;2023-04-21T08:38:56;101350.41;;;12.38;76.92
38466;BME280;24244;51.950;5.902;2023-04-21T08:41:23;101339.56;;;12.40;76.56
38466;BME280;24244;51.950;5.902;2023-04-21T08:43:50;101350.69;;;12.43;76.80
38466;BME280;24244;51.950;5.902;2023-04-21T08:46:17;101342.97;;;12.48;76.84
38466;BME280;24244;51.950;5.902;2023-04-21T08:48:45;101345.47;;;12.50;76.56
38466;BME280;24244;51.950;5.902;2023-04-21T08:51:22;101344.72;;;12.56;76.48
38466;BME280;24244;51.950;5.902;2023-04-21T08:53:49;101344.16;;;12.61;76.74
38466;BME280;24244;51.950;5.902;2023-04-21T08:56:17;101344.06;;;12.69;76.12
38466;BME280;24244;51.950;5.902;2023-04-21T08:58:44;101339.16;;;12.72;76.31
38466;BME280;24244;51.950;5.902;2023-04-21T09:01:10;101337.81;;;12.76;76.39
38466;BME280;24244;51.950;5.902;2023-04-21T09:03:37;101333.72;;;12.80;76.25
38466;BME280;24244;51.950;5.902;2023-04-21T09:06:06;101325.38;;;12.83;76.12
38466;BME280;24244;51.950;5.902;2023-04-21T09:08:41;101332.81;;;12.88;76.36
38466;BME280;24244;51.950;5.902;2023-04-21T09:11:12;101336.56;;;12.93;76.14
38466;BME280;24244;51.950;5.902;2023-04-21T09:13:41;101337.03;;;12.97;76.05
38466;BME280;24244;51.950;5.902;2023-04-21T09:16:14;101330.28;;;13.01;75.96
38466;BME280;24244;51.950;5.902;2023-04-21T09:18:43;101340.59;;;13.04;76.02
38466;BME280;24244;51.950;5.902;2023-04-21T09:21:11;101344.91;;;13.05;76.00
38466;BME280;24244;51.950;5.902;2023-04-21T09:23:41;101341.69;;;13.10;75.64
38466;BME280;24244;51.950;5.902;2023-04-21T09:26:09;101330.66;;;13.13;75.70
38466;BME280;24244;51.950;5.902;2023-04-21T09:28:39;101337.47;;;13.15;75.71
38466;BME280;24244;51.950;5.902;2023-04-21T09:31:12;101328.91;;;13.20;75.67
38466;BME280;24244;51.950;5.902;2023-04-21T09:33:43;101328.50;;;13.23;75.56
38466;BME280;24244;51.950;5.902;2023-04-21T09:36:17;101323.44;;;13.28;75.80
38466;BME280;24244;51.950;5.902;2023-04-21T09:38:48;101330.03;;;13.32;75.45
38466;BME280;24244;51.950;5.902;2023-04-21T09:41:29;101329.84;;;13.33;75.03
38466;BME280;24244;51.950;5.902;2023-04-21T09:43:57;101328.84;;;13.35;75.64
38466;BME280;24244;51.950;5.902;2023-04-21T09:46:28;101316.56;;;13.40;75.64
38466;BME280;24244;51.950;5.902;2023-04-21T09:48:59;101318.28;;;13.48;75.47
38466;BME280;24244;51.950;5.902;2023-04-21T09:51:29;101327.56;;;13.52;75.45
38466;BME280;24244;51.950;5.902;2023-04-21T09:54:09;101326.78;;;13.58;75.26
38466;BME280;24244;51.950;5.902;2023-04-21T09:56:55;101322.53;;;13.63;75.07
38466;BME280;24244;51.950;5.902;2023-04-21T09:59:24;101321.13;;;13.67;74.92
38466;BME280;24244;51.950;5.902;2023-04-21T10:01:54;101319.28;;;13.68;74.62
38466;BME280;24244;51.950;5.902;2023-04-21T10:04:24;101311.09;;;13.69;74.71
38466;BME280;24244;51.950;5.902;2023-04-21T10:06:54;101307.00;;;13.73;74.92
38466;BME280;24244;51.950;5.902;2023-04-21T10:09:24;101311.97;;;13.77;74.93
38466;BME280;24244;51.950;5.902;2023-04-21T10:11:53;101299.66;;;13.82;74.39
38466;BME280;24244;51.950;5.902;2023-04-21T10:14:21;101301.75;;;13.87;74.41
38466;BME280;24244;51.950;5.902;2023-04-21T10:16:55;101297.50;;;13.92;74.34
38466;BME280;24244;51.950;5.902;2023-04-21T10:19:23;101296.06;;;13.96;74.30
38466;BME280;24244;51.950;5.902;2023-04-21T10:21:54;101299.81;;;14.02;74.24
38466;BME280;24244;51.950;5.902;2023-04-21T10:24:27;101299.44;;;14.05;73.89
38466;BME280;24244;51.950;5.902;2023-04-21T10:26:56;101296.56;;;14.06;74.03
38466;BME280;24244;51.950;5.902;2023-04-21T10:29:29;101293.66;;;14.08;74.12
38466;BME280;24244;51.950;5.902;2023-04-21T10:32:09;101298.22;;;14.14;73.82
38466;BME280;24244;51.950;5.902;2023-04-21T10:34:37;101292.72;;;14.22;73.72
38466;BME280;24244;51.950;5.902;2023-04-21T10:37:17;101289.47;;;14.27;73.73
38466;BME280;24244;51.950;5.902;2023-04-21T10:39:54;101295.06;;;14.32;73.87
38466;BME280;24244;51.950;5.902;2023-04-21T10:42:26;101294.28;;;14.38;73.64
38466;BME280;24244;51.950;5.902;2023-04-21T10:45:03;101297.41;;;14.41;73.38
38466;BME280;24244;51.950;5.902;2023-04-21T10:47:35;101288.78;;;14.46;73.52
38466;BME280;24244;51.950;5.902;2023-04-21T10:50:11;101278.09;;;14.46;73.37
38466;BME280;24244;51.950;5.902;2023-04-21T10:52:38;101263.69;;;14.47;73.24
38466;BME280;24244;51.950;5.902;2023-04-21T10:55:11;101262.25;;;14.51;73.26
38466;BME280;24244;51.950;5.902;2023-04-21T10:57:42;101266.78;;;14.50;73.06
38466;BME280;24244;51.950;5.902;2023-04-21T11:00:14;101273.78;;;14.52;73.11
38466;BME280;24244;51.950;5.902;2023-04-21T11:02:41;101284.47;;;14.52;72.94
38466;BME280;24244;51.950;5.902;2023-04-21T11:05:10;101273.97;;;14.50;72.95
38466;BME280;24244;51.950;5.902;2023-04-21T11:07:38;101264.53;;;14.47;73.29
38466;BME280;24244;51.950;5.902;2023-04-21T11:10:07;101263.06;;;14.52;73.00
38466;BME280;24244;51.950;5.902;2023-04-21T11:12:36;101261.88;;;14.54;72.81
38466;BME280;24244;51.950;5.902;2023-04-21T11:15:06;101261.22;;;14.52;72.80
38466;BME280;24244;51.950;5.902;2023-04-21T11:17:34;101256.72;;;14.53;72.68
38466;BME280;24244;51.950;5.902;2023-04-21T11:20:02;101259.00;;;14.56;72.84
38466;BME280;24244;51.950;5.902;2023-04-21T11:22:30;101248.72;;;14.59;72.91
38466;BME280;24244;51.950;5.902;2023-04-21T11:24:57;101243.38;;;14.66;72.49
38466;BME280;24244;51.950;5.902;2023-04-21T11:27:26;101235.81;;;14.76;72.42
38466;BME280;24244;51.950;5.902;2023-04-21T11:29:55;101249.41;;;14.81;72.39
38466;BME280;24244;51.950;5.902;2023-04-21T11:32:24;101241.56;;;14.86;72.05
38466;BME280;24244;51.950;5.902;2023-04-21T11:34:50;101233.78;;;14.91;71.97
38466;BME280;24244;51.950;5.902;2023-04-21T11:37:23;101222.25;;;14.97;71.69
38466;BME280;24244;51.950;5.902;2023-04-21T11:39:56;101221.63;;;15.02;71.72
38466;BME280;24244;51.950;5.902;2023-04-21T11:42:23;101222.91;;;15.06;71.56
38466;BME280;24244;51.950;5.902;2023-04-21T11:44:53;101217.94;;;15.09;71.34
38466;BME280;24244;51.950;5.902;2023-04-21T11:47:22;101211.38;;;15.12;71.52
38466;BME280;24244;51.950;5.902;2023-04-21T11:49:51;101205.78;;;15.13;71.24
38466;BME280;24244;51.950;5.902;2023-04-21T11:52:21;101195.50;;;15.17;71.10
38466;BME280;24244;51.950;5.902;2023-04-21T11:54:54;101194.03;;;15.21;71.20
38466;BME280;24244;51.950;5.902;2023-04-21T11:57:23;101195.69;;;15.22;70.96
38466;BME280;24244;51.950;5.902;2023-04-21T11:59:53;101189.75;;;15.20;70.50
38466;BME280;24244;51.950;5.902;2023-04-21T12:02:25;101189.94;;;15.18;70.82
38466;BME280;24244;51.950;5.902;2023-04-21T12:05:00;101199.00;;;15.17;70.63
38466;BME280;24244;51.950;5.902;2023-04-21T12:07:30;101196.94;;;15.19;70.54
38466;BME280;24244;51.950;5.902;2023-04-21T12:09:58;101199.63;;;15.19;70.41
38466;BME280;24244;51.950;5.902;2023-04-21T12:12:26;101201.06;;;15.22;70.34
38466;BME280;24244;51.950;5.902;2023-04-21T12:14:53;101200.66;;;15.25;70.12
38466;BME280;24244;51.950;5.902;2023-04-21T12:17:20;101190.34;;;15.28;70.29
38466;BME280;24244;51.950;5.902;2023-04-21T12:19:48;101194.28;;;15.33;70.06
38466;BME280;24244;51.950;5.902;2023-04-21T12:22:17;101181.28;;;15.36;70.02
38466;BME280;24244;51.950;5.902;2023-04-21T12:24:44;101182.94;;;15.37;70.01
38466;BME280;24244;51.950;5.902;2023-04-21T12:27:12;101183.34;;;15.41;69.85
38466;BME280;24244;51.950;5.902;2023-04-21T12:29:39;101162.31;;;15.44;69.68
38466;BME280;24244;51.950;5.902;2023-04-21T12:32:07;101164.59;;;15.47;69.32
38466;BME280;24244;51.950;5.902;2023-04-21T12:34:35;101159.00;;;15.49;69.27
38466;BME280;24244;51.950;5.902;2023-04-21T12:37:03;101158.59;;;15.52;69.29
38466;BME280;24244;51.950;5.902;2023-04-21T12:39:30;101156.56;;;15.54;69.30
38466;BME280;24244;51.950;5.902;2023-04-21T12:41:58;101151.41;;;15.59;68.97
38466;BME280;24244;51.950;5.902;2023-04-21T12:44:25;101158.59;;;15.65;69.26
38466;BME280;24244;51.950;5.902;2023-04-21T12:46:52;101153.84;;;15.67;69.17
38466;BME280;24244;51.950;5.902;2023-04-21T12:49:19;101153.66;;;15.69;68.81
38466;BME280;24244;51.950;5.902;2023-04-21T12:51:47;101137.78;;;15.67;68.82
38466;BME280;24244;51.950;5.902;2023-04-21T12:54:16;101132.63;;;15.65;68.97
38466;BME280;24244;51.950;5.902;2023-04-21T12:56:43;101122.31;;;15.69;69.22
38466;BME280;24244;51.950;5.902;2023-04-21T12:59:10;101123.31;;;15.75;68.95
38466;BME280;24244;51.950;5.902;2023-04-21T13:01:37;101114.06;;;15.77;68.91